createdAt,value
2022-08-05T00:00:06.786Z,1.50
2022-08-05T00:02:53.504Z,1.10
2022-08-05T00:06:06.585Z,1.65
2022-08-05T00:08:48.361Z,1.27
2022-08-05T00:11:49.457Z,1.13
2022-08-05T00:14:42.355Z,1.95
2022-08-05T00:17:28.691Z,1.20
2022-08-05T00:20:15.534Z,1.70
2022-08-05T00:23:13.377Z,1.25
2022-08-05T00:26:00.102Z,1.40
2022-08-05T00:28:49.390Z,1.40
2022-08-05T00:31:54.085Z,1.20
2022-08-05T00:35:05.391Z,1.58
2022-08-05T00:37:54.785Z,1.77
2022-08-05T00:40:56.415Z,1.40
2022-08-05T00:43:49.688Z,1.80
2022-08-05T00:46:36.865Z,1.67
2022-08-05T00:49:32.626Z,1.50
2022-08-05T00:52:31.180Z,1.38
2022-08-05T00:55:17.337Z,1.80
2022-08-05T00:58:08.235Z,1.85
2022-08-05T01:01:01.564Z,1.98
2022-08-05T01:03:54.159Z,1.33
2022-08-05T01:06:46.578Z,1.30
2022-08-05T01:09:35.129Z,1.30
2022-08-05T01:12:30.229Z,1.40
2022-08-05T01:15:35.691Z,0.95
2022-08-05T01:18:27.483Z,1.25
2022-08-05T01:21:51.507Z,1.55
2022-08-05T01:28:05.920Z,2.15
2022-08-05T01:31:09.145Z,1.20
2022-08-05T01:34:05.835Z,0.98
2022-08-05T01:37:04.765Z,1.20
2022-08-05T01:39:59.432Z,1.20
2022-08-05T01:42:48.819Z,1.67
2022-08-05T01:45:43.068Z,1.10
2022-08-05T01:48:33.201Z,1.08
2022-08-05T01:51:21.868Z,1.15
2022-08-05T01:54:10.844Z,1.30
2022-08-05T01:58:11.161Z,1.30
2022-08-05T02:00:12.119Z,1.98
2022-08-05T02:03:24.519Z,1.42
2022-08-05T02:06:33.922Z,1.00
2022-08-05T02:09:23.432Z,1.10
2022-08-05T02:12:27.614Z,0.95
2022-08-05T02:15:22.120Z,1.27
2022-08-05T02:21:20.264Z,1.10
2022-08-05T02:24:11.037Z,1.25
2022-08-05T02:27:01.331Z,1.15
2022-08-05T02:30:00.872Z,1.33
2022-08-05T02:32:51.403Z,1.10
2022-08-05T02:35:44.901Z,1.20
2022-08-05T02:38:53.601Z,1.35
2022-08-05T02:41:58.076Z,1.45
2022-08-05T02:44:48.537Z,1.25
2022-08-05T02:48:07.304Z,1.77
2022-08-05T02:50:50.428Z,1.40
2022-08-05T02:53:40.411Z,1.27
2022-08-05T02:56:27.533Z,1.42
2022-08-05T02:59:20.603Z,1.27
2022-08-05T03:02:15.470Z,1.33
2022-08-05T03:05:04.350Z,1.20
2022-08-05T03:08:06.682Z,1.35
2022-08-05T03:11:53.642Z,1.90
2022-08-05T03:14:02.802Z,1.30
2022-08-05T03:16:49.628Z,1.48
2022-08-05T03:19:39.505Z,1.73
2022-08-05T03:22:32.319Z,1.60
2022-08-05T03:26:03.638Z,1.50
2022-08-05T03:28:28.033Z,1.38
2022-08-05T03:31:25.888Z,1.27
2022-08-05T03:34:20.932Z,1.10
2022-08-05T03:37:10.477Z,1.20
2022-08-05T03:39:59.176Z,1.50
2022-08-05T03:42:52.129Z,1.20
2022-08-05T03:45:58.037Z,1.15
2022-08-05T03:48:45.494Z,1.20
2022-08-05T03:52:38.511Z,1.25
2022-08-05T03:55:52.989Z,1.42
2022-08-05T03:58:01.442Z,1.23
2022-08-05T04:00:51.472Z,1.10
2022-08-05T04:03:40.211Z,1.35
2022-08-05T04:06:51.381Z,1.35
2022-08-05T04:09:38.260Z,1.30
2022-08-05T04:15:24.909Z,2.08
2022-08-05T04:18:22.457Z,1.40
2022-08-05T04:21:11.664Z,1.50
2022-08-05T04:24:06.413Z,1.45
2022-08-05T04:26:55.618Z,1.50
2022-08-05T04:29:44.240Z,1.20
2022-08-05T04:32:33.432Z,1.02
2022-08-05T04:35:21.962Z,1.33
2022-08-05T04:38:09.825Z,1.20
2022-08-05T04:41:03.535Z,1.42
2022-08-05T04:43:52.791Z,1.90
2022-08-05T04:46:39.367Z,1.40
2022-08-05T04:49:39.196Z,1.38
2022-08-05T04:52:34.299Z,1.88
2022-08-05T04:55:21.076Z,1.83
2022-08-05T04:58:26.871Z,1.70
2022-08-05T05:01:13.688Z,1.50
2022-08-05T05:04:00.106Z,1.60
2022-08-05T05:06:52.031Z,1.60
2022-08-05T05:09:45.225Z,1.50
2022-08-05T05:12:32.096Z,1.40
2022-08-05T05:15:57.787Z,1.70
2022-08-05T05:18:31.170Z,1.40
2022-08-05T05:21:20.218Z,1.50
2022-08-05T05:24:08.903Z,1.50
2022-08-05T05:26:55.655Z,1.65
2022-08-05T05:30:04.359Z,1.40
2022-08-05T05:32:49.346Z,1.63
2022-08-05T05:35:37.986Z,1.30
2022-08-05T05:38:28.469Z,1.40
2022-08-05T05:41:16.396Z,1.77
2022-08-05T05:44:04.779Z,1.40
2022-08-05T05:47:21.405Z,1.50
2022-08-05T05:50:09.967Z,1.48
2022-08-05T05:53:02.670Z,2.05
2022-08-05T05:56:10.300Z,1.50
2022-08-05T05:59:03.284Z,1.42
2022-08-05T06:01:57.157Z,1.40
2022-08-05T06:04:44.442Z,1.30
2022-08-05T06:07:41.773Z,1.50
2022-08-05T06:10:29.236Z,1.55
2022-08-05T06:13:15.733Z,1.73
2022-08-05T06:16:30.903Z,1.42
2022-08-05T06:19:09.100Z,1.75
2022-08-05T06:21:58.459Z,1.85
2022-08-05T06:24:48.253Z,1.60
2022-08-05T06:28:11.341Z,1.70
2022-08-05T06:30:42.136Z,1.85
2022-08-05T06:34:02.964Z,1.45
2022-08-05T06:36:37.391Z,1.33
2022-08-05T06:39:44.258Z,1.75
2022-08-05T06:42:32.988Z,1.60
2022-08-05T06:45:21.019Z,1.70
2022-08-05T06:48:13.803Z,1.38
2022-08-05T06:51:22.748Z,1.73
2022-08-05T06:54:18.123Z,1.63
2022-08-05T06:57:14.069Z,1.60
2022-08-05T07:00:12.617Z,1.80
2022-08-05T07:02:59.340Z,1.23
2022-08-05T07:05:46.216Z,2.78
2022-08-05T07:08:32.915Z,1.45
2022-08-05T07:11:22.144Z,2.13
2022-08-05T07:14:32.195Z,1.50
2022-08-05T07:18:07.285Z,1.50
2022-08-05T07:20:33.371Z,2.33
2022-08-05T07:23:26.300Z,1.67
2022-08-05T07:26:20.931Z,1.70
2022-08-05T07:29:09.224Z,1.33
2022-08-05T07:31:55.831Z,2.22
2022-08-05T07:34:42.395Z,1.23
2022-08-05T07:37:29.126Z,1.45
2022-08-05T07:40:26.786Z,1.58
2022-08-05T07:43:20.869Z,1.38
2022-08-05T07:46:07.274Z,1.02
2022-08-05T07:49:10.912Z,1.42
2022-08-05T07:51:57.161Z,1.17
2022-08-05T07:54:49.107Z,1.40
2022-08-05T07:57:55.161Z,1.30
2022-08-05T08:00:42.496Z,1.50
2022-08-05T08:03:44.355Z,1.33
2022-08-05T08:06:32.641Z,1.52
2022-08-05T08:09:19.779Z,1.45
2022-08-05T08:12:15.938Z,1.52
2022-08-05T08:15:15.804Z,1.20
2022-08-05T08:18:04.257Z,1.45
2022-08-05T08:21:02.962Z,1.45
2022-08-05T08:24:01.846Z,1.50
2022-08-05T08:26:50.838Z,1.17
2022-08-05T08:30:05.601Z,2.22
2022-08-05T08:32:44.622Z,1.17
2022-08-05T08:35:34.881Z,1.15
2022-08-05T08:38:36.129Z,1.80
2022-08-05T08:41:52.377Z,1.30
2022-08-05T08:45:19.417Z,1.20
2022-08-05T08:48:07.588Z,1.33
2022-08-05T08:51:03.470Z,1.15
2022-08-05T08:53:54.144Z,1.10
2022-08-05T08:56:47.893Z,1.10
2022-08-05T08:59:36.234Z,2.05
2022-08-05T09:02:26.668Z,1.30
2022-08-05T09:05:16.600Z,1.40
2022-08-05T09:08:04.819Z,2.60
2022-08-05T09:10:52.067Z,1.40
2022-08-05T09:14:09.663Z,1.17
2022-08-05T09:16:48.756Z,1.30
2022-08-05T09:19:36.842Z,1.30
2022-08-05T09:23:19.685Z,1.45
2022-08-05T09:26:10.314Z,1.27
2022-08-05T09:29:06.976Z,0.90
2022-08-05T09:32:42.047Z,1.08
2022-08-05T09:35:20.168Z,1.42
2022-08-05T09:38:18.294Z,1.55
2022-08-05T09:41:07.367Z,1.63
2022-08-05T09:43:54.374Z,1.23
2022-08-05T09:46:51.594Z,1.40
2022-08-05T09:50:02.466Z,1.40
2022-08-05T09:52:57.745Z,1.17
2022-08-05T09:55:57.697Z,1.30
2022-08-05T09:59:04.981Z,1.17
2022-08-05T10:01:58.393Z,1.23
2022-08-05T10:04:53.825Z,2.17
2022-08-05T10:08:11.007Z,1.20
2022-08-05T10:10:55.564Z,1.10
2022-08-05T10:13:47.199Z,1.40
2022-08-05T10:16:41.852Z,1.23
2022-08-05T10:20:04.020Z,1.20
2022-08-05T10:22:48.687Z,1.23
2022-08-05T10:25:37.160Z,1.20
2022-08-05T10:28:30.564Z,1.05
2022-08-05T10:32:47.845Z,1.45
2022-08-05T10:34:30.073Z,1.20
2022-08-05T10:37:18.049Z,1.02
2022-08-05T10:40:17.888Z,1.38
2022-08-05T10:43:35.905Z,0.82
2022-08-05T10:46:23.857Z,1.40
2022-08-05T10:49:16.493Z,1.25
2022-08-05T10:52:05.490Z,1.00
2022-08-05T10:55:06.229Z,1.20
2022-08-05T10:58:11.864Z,1.08
2022-08-05T11:01:08.486Z,1.35
2022-08-05T11:04:17.365Z,0.90
2022-08-05T11:07:08.907Z,2.13
2022-08-05T11:10:09.659Z,1.58
2022-08-05T11:12:57.884Z,1.67
2022-08-05T11:16:00.920Z,1.38
2022-08-05T11:18:48.229Z,1.67
2022-08-05T11:21:48.665Z,1.40
2022-08-05T11:24:35.490Z,2.78
2022-08-05T11:27:45.807Z,1.20
2022-08-05T11:31:06.613Z,1.07
2022-08-05T11:33:56.576Z,1.23
2022-08-05T11:36:53.010Z,1.10
2022-08-05T11:40:00.858Z,0.75
2022-08-05T11:42:50.162Z,1.23
2022-08-05T11:46:14.899Z,2.03
2022-08-05T11:48:57.653Z,1.40
2022-08-05T11:51:49.470Z,1.35
2022-08-05T11:54:38.229Z,1.50
2022-08-05T11:58:08.058Z,1.20
2022-08-05T12:00:38.505Z,1.75
2022-08-05T12:03:31.525Z,1.55
2022-08-05T12:06:23.813Z,1.90
2022-08-05T12:09:20.133Z,1.30
2022-08-05T12:12:08.226Z,1.40
2022-08-05T12:14:56.604Z,2.08
2022-08-05T12:18:02.791Z,1.25
2022-08-05T12:20:51.766Z,1.80
2022-08-05T12:23:51.334Z,2.00
2022-08-05T12:26:47.092Z,1.52
2022-08-05T12:29:37.949Z,1.50
2022-08-05T12:32:25.508Z,1.30
2022-08-05T12:35:16.850Z,1.40
2022-08-05T12:38:08.067Z,1.60
2022-08-05T12:40:57.538Z,1.15
2022-08-05T12:43:56.442Z,1.10
2022-08-05T12:46:51.395Z,1.30
2022-08-05T12:50:03.869Z,1.20
2022-08-05T12:52:59.995Z,1.52
2022-08-05T12:55:46.664Z,1.38
2022-08-05T12:58:51.271Z,1.02
2022-08-05T13:01:59.858Z,1.10
2022-08-05T13:04:52.568Z,1.30
2022-08-05T13:07:59.703Z,1.60
2022-08-05T13:10:50.673Z,1.27
2022-08-05T13:14:06.133Z,1.48
2022-08-05T13:16:51.790Z,1.10
2022-08-05T13:19:51.857Z,1.30
2022-08-05T13:22:42.112Z,1.90
2022-08-05T13:25:52.094Z,1.20
2022-08-05T13:28:40.879Z,1.85
2022-08-05T13:31:34.103Z,1.38
2022-08-05T13:34:36.704Z,1.02
2022-08-05T13:37:34.452Z,1.27
2022-08-05T13:40:35.655Z,1.33
2022-08-05T13:43:45.098Z,1.13
2022-08-05T13:46:50.618Z,1.10
2022-08-05T13:49:45.353Z,1.20
2022-08-05T13:52:36.277Z,1.02
2022-08-05T13:55:41.605Z,1.17
2022-08-05T13:58:30.507Z,1.10
2022-08-05T14:01:17.497Z,1.15
2022-08-05T14:04:26.422Z,1.20
2022-08-05T14:07:56.329Z,1.50
2022-08-05T14:10:28.070Z,1.45
2022-08-05T14:13:16.788Z,1.85
2022-08-05T14:16:05.185Z,1.50
2022-08-05T14:18:52.914Z,1.35
2022-08-05T14:22:08.831Z,1.05
2022-08-05T14:24:47.425Z,1.25
2022-08-05T14:27:33.697Z,1.65
2022-08-05T14:30:21.690Z,1.33
2022-08-05T14:33:10.711Z,1.38
2022-08-05T14:36:03.200Z,1.40
2022-08-05T14:38:52.649Z,1.40
2022-08-05T14:41:52.221Z,1.30
2022-08-05T14:44:46.431Z,1.33
2022-08-05T14:48:05.175Z,1.88
2022-08-05T14:50:41.722Z,1.02
2022-08-05T14:53:29.867Z,1.63
2022-08-05T14:56:16.518Z,1.20
2022-08-05T14:59:12.770Z,1.10
2022-08-05T15:02:00.009Z,1.60
2022-08-05T15:04:49.959Z,1.48
2022-08-05T15:08:10.705Z,1.33
2022-08-05T15:10:43.412Z,1.77
2022-08-05T15:13:46.617Z,1.55
2022-08-05T15:16:36.490Z,1.60
2022-08-05T15:19:24.114Z,1.40
2022-08-05T15:22:10.882Z,1.10
2022-08-05T15:24:59.038Z,1.17
2022-08-05T15:27:52.112Z,0.98
2022-08-05T15:30:38.696Z,0.93
2022-08-05T15:34:05.540Z,1.40
2022-08-05T15:36:32.413Z,1.90
2022-08-05T15:40:58.548Z,1.55
2022-08-05T15:42:54.306Z,1.60
2022-08-05T15:45:38.285Z,1.17
2022-08-05T15:48:24.639Z,1.33
2022-08-05T15:51:10.618Z,1.60
2022-08-05T15:53:57.336Z,1.40
2022-08-05T15:56:45.741Z,1.25
2022-08-05T15:59:31.565Z,1.10
2022-08-05T16:02:19.458Z,1.23
2022-08-05T16:05:11.345Z,1.20
2022-08-05T16:07:57.824Z,1.10
2022-08-05T16:10:44.210Z,0.98
2022-08-05T16:13:34.952Z,1.30
2022-08-05T16:16:25.528Z,1.08
2022-08-05T16:19:12.032Z,1.20
2022-08-05T16:22:06.803Z,1.20
2022-08-05T16:24:57.791Z,1.23
2022-08-05T16:28:00.195Z,1.05
2022-08-05T16:30:47.140Z,1.17
2022-08-05T16:33:41.193Z,1.00
2022-08-05T16:36:28.128Z,1.00
2022-08-05T16:39:14.692Z,1.27
2022-08-05T16:42:27.626Z,1.20
2022-08-05T16:46:06.137Z,1.23
2022-08-05T16:48:25.109Z,1.50
2022-08-05T16:51:12.340Z,1.65
2022-08-05T16:54:05.090Z,1.20
2022-08-05T16:56:57.520Z,1.35
2022-08-05T17:00:01.739Z,1.77
2022-08-05T17:02:51.343Z,1.25
2022-08-05T17:05:37.798Z,1.15
2022-08-05T17:08:36.348Z,1.10
2022-08-05T17:11:30.724Z,1.40
2022-08-05T17:14:37.649Z,1.50
2022-08-05T17:17:26.534Z,1.20
2022-08-05T17:20:28.817Z,1.20
2022-08-05T17:24:04.310Z,1.17
2022-08-05T17:26:21.184Z,1.33
2022-08-05T17:29:10.172Z,1.65
2022-08-05T17:31:59.176Z,1.13
2022-08-05T17:34:48.121Z,1.05
2022-08-05T17:37:40.040Z,0.98
2022-08-05T17:40:27.580Z,1.50
2022-08-05T17:43:17.966Z,1.45
2022-08-05T17:46:24.205Z,1.30
2022-08-05T17:49:10.113Z,1.60
2022-08-05T17:51:56.444Z,1.65
2022-08-05T17:54:42.722Z,1.73
2022-08-05T17:57:28.917Z,1.65
2022-08-05T18:00:18.518Z,1.45
2022-08-05T18:03:04.940Z,1.27
2022-08-05T18:05:54.454Z,1.45
2022-08-05T18:08:44.854Z,1.98
2022-08-05T18:11:33.884Z,1.17
2022-08-05T18:14:20.862Z,2.10
2022-08-05T18:17:07.097Z,1.92
2022-08-05T18:20:16.132Z,4.10
2022-08-05T18:23:09.509Z,3.30
2022-08-05T18:25:59.473Z,3.30
2022-08-05T18:28:46.503Z,2.22
2022-08-05T18:31:35.310Z,2.40
2022-08-05T18:34:22.072Z,2.33
2022-08-05T18:37:12.275Z,2.05
2022-08-05T18:41:50.162Z,1.90
2022-08-05T18:43:05.454Z,1.67
2022-08-05T18:45:55.334Z,1.60
2022-08-05T18:48:42.560Z,2.33
2022-08-05T18:52:05.107Z,2.50
2022-08-05T18:54:54.538Z,2.00
2022-08-05T18:57:50.046Z,1.70
2022-08-05T19:00:40.193Z,2.00
2022-08-05T19:03:53.482Z,2.33
2022-08-05T19:06:44.723Z,0.90
2022-08-05T19:09:40.091Z,1.20
2022-08-05T19:12:26.368Z,1.27
2022-08-05T19:15:56.694Z,1.00
2022-08-05T19:18:22.531Z,1.50
2022-08-05T19:21:08.761Z,1.55
2022-08-05T19:24:06.252Z,1.30
2022-08-05T19:26:57.131Z,1.33
2022-08-05T19:29:43.350Z,1.30
2022-08-05T19:32:30.388Z,1.20
2022-08-05T19:35:16.481Z,1.50
2022-08-05T19:38:04.578Z,1.50
2022-08-05T19:40:54.078Z,1.35
2022-08-05T19:44:05.402Z,1.52
2022-08-05T19:46:50.938Z,1.80
2022-08-05T19:49:37.466Z,1.65
2022-08-05T19:52:30.611Z,2.03
2022-08-05T19:56:14.451Z,1.55
2022-08-05T19:58:28.404Z,1.40
2022-08-05T20:01:16.195Z,2.15
2022-08-05T20:04:14.790Z,1.33
2022-08-05T20:07:02.065Z,1.52
2022-08-05T20:09:53.958Z,1.63
2022-08-05T20:12:47.866Z,1.60
2022-08-05T20:15:52.465Z,1.52
2022-08-05T20:18:44.966Z,1.52
2022-08-05T20:21:31.865Z,1.45
2022-08-05T20:24:19.427Z,1.70
2022-08-05T20:27:11.372Z,1.92
2022-08-05T20:29:59.045Z,2.10
2022-08-05T20:32:45.608Z,1.90
2022-08-05T20:35:31.864Z,1.50
2022-08-05T20:38:28.248Z,1.90
2022-08-05T20:41:23.767Z,1.50
2022-08-05T20:44:18.507Z,1.20
2022-08-05T20:47:14.927Z,1.45
2022-08-05T20:50:02.436Z,1.50
2022-08-05T20:52:52.532Z,1.65
2022-08-05T20:56:07.484Z,1.65
2022-08-05T20:58:44.466Z,1.27
2022-08-05T21:01:38.299Z,1.17
2022-08-05T21:04:26.878Z,1.30
2022-08-05T21:07:14.314Z,1.42
2022-08-05T21:10:00.936Z,1.60
2022-08-05T21:13:09.042Z,1.40
2022-08-05T21:15:57.938Z,1.70
2022-08-05T21:18:45.326Z,1.98
2022-08-05T21:21:39.095Z,2.38
2022-08-05T21:24:30.062Z,3.17
2022-08-05T21:27:16.704Z,3.42
2022-08-05T21:30:03.901Z,3.50
2022-08-05T21:32:49.861Z,4.15
2022-08-05T21:35:55.930Z,3.97
2022-08-05T21:38:42.773Z,4.43
2022-08-05T21:41:34.283Z,3.25
2022-08-05T21:44:27.083Z,4.43
2022-08-05T21:47:17.644Z,3.63
2022-08-05T21:50:22.182Z,3.17
2022-08-05T21:53:17.394Z,2.97
2022-08-05T21:56:16.532Z,3.40
2022-08-05T21:59:08.030Z,2.80
2022-08-05T22:02:09.337Z,2.30
2022-08-05T22:04:58.353Z,1.95
2022-08-05T22:07:58.436Z,1.85
2022-08-05T22:10:45.881Z,1.80
2022-08-05T22:14:33.199Z,1.58
2022-08-05T22:16:51.724Z,2.13
2022-08-05T22:20:02.938Z,1.70
2022-08-05T22:23:16.749Z,3.47
2022-08-05T22:26:22.361Z,1.40
2022-08-05T22:29:10.585Z,1.60
2022-08-05T22:32:02.771Z,1.60
2022-08-05T22:34:50.098Z,1.55
2022-08-05T22:37:58.683Z,1.50
2022-08-05T22:40:49.399Z,2.60
2022-08-05T22:43:38.200Z,1.45
2022-08-05T22:46:25.926Z,1.60
2022-08-05T22:50:17.688Z,1.38
2022-08-05T22:52:30.418Z,1.95
2022-08-05T22:55:21.745Z,1.58
2022-08-05T22:58:11.680Z,1.90
2022-08-05T23:01:03.666Z,1.90
2022-08-05T23:03:57.940Z,1.50
2022-08-05T23:06:48.558Z,1.30
2022-08-05T23:09:58.428Z,2.08
2022-08-05T23:12:40.920Z,1.60
2022-08-05T23:15:35.364Z,1.27
2022-08-05T23:18:22.864Z,1.90
2022-08-05T23:21:10.276Z,1.50
2022-08-05T23:23:56.549Z,1.33
2022-08-05T23:26:42.454Z,1.63
2022-08-05T23:29:34.418Z,1.30
2022-08-05T23:32:22.691Z,1.67
2022-08-05T23:35:09.872Z,2.25
2022-08-05T23:37:56.033Z,2.38
2022-08-05T23:40:42.239Z,1.65
2022-08-05T23:43:37.312Z,1.55
2022-08-05T23:46:41.446Z,1.48
2022-08-05T23:49:35.672Z,1.50
2022-08-05T23:52:32.553Z,1.50
2022-08-05T23:55:30.885Z,1.40
2022-08-05T23:58:31.448Z,1.52
